Terminal Aerodrome Forecast
Issued by NWS

Home | Current Version | Previous Version | Graphics & Text | Print | Product List | Glossary On
Versions: 1 2 3 4 5 6 7 8 9 10 11 12 13 14 15 16 17 18 19 20 21 22 23 24 25 26 27 28 29 30 31
000
FTUS43 KGRB 232232 AAA
TAFATW
TAF AMD
KATW 232232Z 2323/2418 21006KT P6SM SCT200
     FM240600 21010KT P6SM SCT100 WS015/23035KT
     FM241200 21011G21KT P6SM SCT100 BKN150
     FM241700 21015G25KT P6SM FEW080 BKN110=

USA.gov is the U.S. government's official web portal to all federal, state and local government web resources and services.